Time;durP1;ratioP1;P1;durP2;ratioP2;P2;SDS_P1;SDS_P2;PMS_P1;PMS_P2;Temp;Humidity;BMP_temperature;BMP_pressure;BME280_temperature;BME280_humidity;BME280_pressure;Samples;Min_cycle;Max_cycle;Signal;HPM_P1;HPM_P2
2022/03/24 00:00:21;;;;;;;;;;;;;;;22.23;12.63;98526.31;4940295;29;986;-78
2022/03/24 00:02:46;;;;;;;;;;;;;;;22.34;12.60;98521.22;4940551;29;1018;-78
2022/03/24 00:05:12;;;;;;;;;;;;;;;22.45;12.30;98525.84;4940024;29;889;-77
2022/03/24 00:07:38;;;;;;;;;;;;;;;22.53;12.15;98522.41;4954573;29;1973;-78
2022/03/24 00:10:04;;;;;;;;;;;;;;;22.56;12.22;98523.59;4959450;29;1075;-77
2022/03/24 00:12:29;;;;;;;;;;;;;;;21.94;12.83;98520.38;4959849;29;1033;-79
2022/03/24 00:14:55;;;;;;;;;;;;;;;21.43;12.86;98513.25;4987510;28;929;-78
2022/03/24 00:17:20;;;;;;;;;;;;;;;21.48;13.32;98505.06;4998444;28;960;-77
2022/03/24 00:19:46;;;;;;;;;;;;;;;22.10;12.44;98511.16;5013908;28;1215;-77
2022/03/24 00:22:11;;;;;;;;;;;;;;;22.36;12.26;98501.72;5020581;28;1030;-77
2022/03/24 00:24:37;;;;;;;;;;;;;;;22.37;12.19;98508.19;5020022;28;921;-78
2022/03/24 00:27:03;;;;;;;;;;;;;;;22.45;12.13;98497.50;5019811;28;1976;-78
2022/03/24 00:29:28;;;;;;;;;;;;;;;22.58;12.11;98502.03;5018710;28;921;-78
2022/03/24 00:31:54;;;;;;;;;;;;;;;22.52;12.37;98500.16;5020299;28;945;-77
2022/03/24 00:34:20;;;;;;;;;;;;;;;21.91;12.65;98489.28;5019600;28;1005;-78
2022/03/24 00:36:45;;;;;;;;;;;;;;;21.37;13.07;98489.50;5037721;28;1101;-78
2022/03/24 00:39:11;;;;;;;;;;;;;;;21.88;12.86;98493.00;5036938;28;1001;-79
2022/03/24 00:41:36;;;;;;;;;;;;;;;22.43;12.50;98482.94;5037787;28;1023;-78
2022/03/24 00:44:03;;;;;;;;;;;;;;;22.51;12.16;98478.72;4997207;28;1315;-78
2022/03/24 00:46:31;;;;;;;;;;;;;;;22.61;12.36;98478.47;4965579;28;1993;-78
2022/03/24 00:48:59;;;;;;;;;;;;;;;22.01;12.78;98474.09;5016289;28;1117;-78
2022/03/24 00:51:24;;;;;;;;;;;;;;;21.42;13.01;98483.34;5017559;28;1127;-76
2022/03/24 00:53:50;;;;;;;;;;;;;;;21.63;12.96;98470.84;5016092;28;991;-78
2022/03/24 00:56:15;;;;;;;;;;;;;;;22.12;12.41;98463.38;4978552;28;1575;-78
2022/03/24 00:58:42;;;;;;;;;;;;;;;22.73;11.83;98457.13;4960804;28;1610;-79
2022/03/24 01:01:11;;;;;;;;;;;;;;;21.82;12.72;98459.50;4959141;29;1397;-77
2022/03/24 01:03:36;;;;;;;;;;;;;;;21.40;13.13;98468.81;4958017;29;1018;-78
2022/03/24 01:06:03;;;;;;;;;;;;;;;21.89;12.48;98454.94;4939408;29;1379;-78
2022/03/24 01:08:30;;;;;;;;;;;;;;;22.38;12.25;98455.13;4907992;29;1879;-78
2022/03/24 01:10:56;;;;;;;;;;;;;;;22.58;12.16;98450.19;4939279;29;987;-78
2022/03/24 01:13:22;;;;;;;;;;;;;;;22.59;12.17;98457.47;4938577;29;1071;-79
2022/03/24 01:15:49;;;;;;;;;;;;;;;22.66;11.64;98450.84;4923621;29;949;-78
2022/03/24 01:18:19;;;;;;;;;;;;;;;22.08;12.32;98445.63;4919268;29;1252;-77
2022/03/24 01:20:46;;;;;;;;;;;;;;;21.24;12.86;98446.84;4935425;29;1003;-77
2022/03/24 01:23:12;;;;;;;;;;;;;;;21.35;12.95;98455.16;4938880;29;1032;-77
2022/03/24 01:25:37;;;;;;;;;;;;;;;22.16;12.06;98440.63;4939122;29;1014;-78
2022/03/24 01:28:03;;;;;;;;;;;;;;;22.65;12.01;98433.03;4938653;29;1906;-78
2022/03/24 01:30:29;;;;;;;;;;;;;;;22.63;11.86;98441.94;4938781;29;1092;-78
2022/03/24 01:32:54;;;;;;;;;;;;;;;22.61;11.82;98430.25;4961290;28;1062;-78
2022/03/24 01:35:19;;;;;;;;;;;;;;;21.51;12.58;98441.13;4996792;28;984;-78
2022/03/24 01:37:45;;;;;;;;;;;;;;;21.48;12.61;98439.94;4996405;28;1059;-78
2022/03/24 01:40:11;;;;;;;;;;;;;;;21.97;12.47;98430.91;4996598;28;1052;-79
2022/03/24 01:42:37;;;;;;;;;;;;;;;22.55;12.00;98434.06;4946808;28;1258;-77
2022/03/24 01:45:03;;;;;;;;;;;;;;;22.76;11.84;98432.75;4987268;28;1301;-78
2022/03/24 01:47:28;;;;;;;;;;;;;;;21.84;12.56;98431.53;4957733;29;1903;-78
2022/03/24 01:49:58;;;;;;;;;;;;;;;21.49;12.82;98435.09;4957429;29;1051;-78
2022/03/24 01:52:24;;;;;;;;;;;;;;;21.77;12.43;98426.03;4922709;29;1185;-78
2022/03/24 01:54:51;;;;;;;;;;;;;;;22.30;12.21;98426.13;4918868;29;1445;-78
2022/03/24 01:57:18;;;;;;;;;;;;;;;22.58;11.78;98424.66;4900721;29;1286;-78
2022/03/24 01:59:44;;;;;;;;;;;;;;;21.89;12.45;98420.94;4880931;29;1142;-78
2022/03/24 02:02:10;;;;;;;;;;;;;;;21.70;12.76;98420.50;4881528;29;963;-78
2022/03/24 02:04:36;;;;;;;;;;;;;;;22.15;12.37;98417.16;4862232;29;1174;-78
2022/03/24 02:07:02;;;;;;;;;;;;;;;22.50;11.80;98415.53;4847381;29;1981;-77
2022/03/24 02:09:28;;;;;;;;;;;;;;;22.61;11.72;98412.44;4843689;29;1172;-78
2022/03/24 02:11:53;;;;;;;;;;;;;;;22.01;12.24;98414.59;4843910;29;1012;-78
2022/03/24 02:14:19;;;;;;;;;;;;;;;21.43;12.89;98419.84;4826020;29;1258;-78
2022/03/24 02:16:46;;;;;;;;;;;;;;;21.32;13.04;98412.34;4797995;29;1337;-78
2022/03/24 02:19:12;;;;;;;;;;;;;;;22.51;11.87;98405.00;4792299;29;1277;-78
2022/03/24 02:21:39;;;;;;;;;;;;;;;22.59;11.91;98414.94;4793001;29;990;-77
2022/03/24 02:24:05;;;;;;;;;;;;;;;21.74;12.68;98415.56;4831291;29;1066;-78
2022/03/24 02:26:31;;;;;;;;;;;;;;;21.44;12.73;98418.59;4877133;29;1907;-78
2022/03/24 02:28:56;;;;;;;;;;;;;;;22.04;12.17;98423.03;4909996;29;1083;-77
2022/03/24 02:31:22;;;;;;;;;;;;;;;22.22;12.08;98416.97;4900283;29;1114;-79
2022/03/24 02:33:48;;;;;;;;;;;;;;;22.44;12.14;98416.50;4884793;29;1096;-78
2022/03/24 02:36:13;;;;;;;;;;;;;;;22.49;12.07;98410.31;4862916;29;1032;-77
2022/03/24 02:38:39;;;;;;;;;;;;;;;22.49;11.73;98413.94;4862323;29;1123;-79
2022/03/24 02:41:05;;;;;;;;;;;;;;;22.53;11.96;98414.63;4847585;29;1004;-76
2022/03/24 02:43:31;;;;;;;;;;;;;;;22.59;12.05;98406.44;4880606;29;1397;-78
2022/03/24 02:45:56;;;;;;;;;;;;;;;22.01;12.51;98401.22;4855745;29;1048;-78
2022/03/24 02:48:22;;;;;;;;;;;;;;;21.46;13.01;98399.16;4880416;29;1915;-78
2022/03/24 02:50:49;;;;;;;;;;;;;;;21.43;12.67;98366.06;4881308;29;1186;-78
2022/03/24 02:53:15;;;;;;;;;;;;;;;22.15;12.30;98399.34;4880890;29;1204;-78
2022/03/24 02:55:40;;;;;;;;;;;;;;;22.29;12.13;98394.16;4881351;29;979;-78
2022/03/24 02:58:06;;;;;;;;;;;;;;;22.48;11.85;98394.53;4880841;29;1025;-77
2022/03/24 03:00:31;;;;;;;;;;;;;;;22.48;12.04;98400.19;4882606;29;993;-78
2022/03/24 03:02:57;;;;;;;;;;;;;;;22.53;11.79;98396.84;4899528;29;975;-78
2022/03/24 03:05:22;;;;;;;;;;;;;;;21.57;12.90;98382.75;4899646;29;1102;-79
2022/03/24 03:07:48;;;;;;;;;;;;;;;21.16;13.06;98398.06;4899672;29;1977;-77
2022/03/24 03:10:13;;;;;;;;;;;;;;;21.53;12.86;98382.03;4902687;29;963;-78
2022/03/24 03:12:39;;;;;;;;;;;;;;;22.22;12.08;98391.47;4923783;29;1054;-77
2022/03/24 03:15:04;;;;;;;;;;;;;;;22.65;11.77;98384.81;4985088;28;998;-77
2022/03/24 03:17:30;;;;;;;;;;;;;;;21.77;12.58;98383.53;4956518;29;1077;-78
2022/03/24 03:19:56;;;;;;;;;;;;;;;21.45;12.92;98380.56;4956131;29;946;-78
2022/03/24 03:22:22;;;;;;;;;;;;;;;21.57;12.58;98382.75;4938693;29;966;-78
2022/03/24 03:24:47;;;;;;;;;;;;;;;22.17;12.40;98386.31;4942626;29;1091;-78
2022/03/24 03:27:13;;;;;;;;;;;;;;;22.63;12.01;98378.75;4960388;29;1907;-77
2022/03/24 03:29:38;;;;;;;;;;;;;;;22.02;12.29;98379.34;4959839;29;1008;-78
2022/03/24 03:32:04;;;;;;;;;;;;;;;21.56;12.85;98372.66;4944117;29;948;-77
2022/03/24 03:34:29;;;;;;;;;;;;;;;21.85;12.41;98376.47;4959843;29;962;-78
2022/03/24 03:36:56;;;;;;;;;;;;;;;22.29;12.16;98374.31;4960172;29;986;-79
2022/03/24 03:39:22;;;;;;;;;;;;;;;22.59;11.90;98372.41;4921266;29;964;-78
2022/03/24 03:41:48;;;;;;;;;;;;;;;22.14;12.43;98367.38;4921929;29;1009;-78
2022/03/24 03:44:13;;;;;;;;;;;;;;;21.57;12.78;98360.91;4921093;29;1239;-79
2022/03/24 03:46:39;;;;;;;;;;;;;;;21.65;12.90;98364.38;4906046;29;1907;-77
2022/03/24 03:49:04;;;;;;;;;;;;;;;22.18;12.36;98365.28;4963786;28;1245;-79
2022/03/24 03:51:31;;;;;;;;;;;;;;;22.42;12.17;98373.63;4947310;28;985;-78
2022/03/24 03:53:57;;;;;;;;;;;;;;;22.62;12.06;98360.16;4978407;28;925;-78
2022/03/24 03:56:22;;;;;;;;;;;;;;;22.07;12.12;98353.31;4940754;29;1031;-78
2022/03/24 03:58:48;;;;;;;;;;;;;;;21.57;12.79;98360.91;4941658;29;1036;-78
2022/03/24 04:01:13;;;;;;;;;;;;;;;21.14;12.81;98366.59;4959448;29;1002;-78
2022/03/24 04:03:39;;;;;;;;;;;;;;;21.95;12.50;98360.47;4959052;29;998;-77
2022/03/24 04:06:06;;;;;;;;;;;;;;;22.40;12.18;98362.72;4959695;29;978;-79
2022/03/24 04:08:31;;;;;;;;;;;;;;;22.43;12.00;98361.03;4959408;29;1990;-78
2022/03/24 04:10:57;;;;;;;;;;;;;;;21.70;12.56;98357.41;4974045;28;1139;-78
2022/03/24 04:13:22;;;;;;;;;;;;;;;21.54;12.72;98358.13;4978115;28;931;-78
2022/03/24 04:15:48;;;;;;;;;;;;;;;22.15;12.22;98363.31;4978982;28;1069;-77
2022/03/24 04:18:13;;;;;;;;;;;;;;;22.43;12.14;98358.19;4978309;28;989;-78
2022/03/24 04:20:39;;;;;;;;;;;;;;;22.68;11.64;98361.22;4978805;28;914;-78
2022/03/24 04:23:05;;;;;;;;;;;;;;;21.85;12.34;98353.81;4978351;28;951;-78
2022/03/24 04:25:31;;;;;;;;;;;;;;;21.64;12.71;98362.78;4978540;28;931;-77
2022/03/24 04:27:57;;;;;;;;;;;;;;;21.63;12.62;98361.19;5007355;28;1914;-78
2022/03/24 04:30:22;;;;;;;;;;;;;;;22.25;12.16;98353.75;5017273;28;989;-78
2022/03/24 04:32:50;;;;;;;;;;;;;;;22.39;12.18;98360.34;4992584;28;1638;-77
2022/03/24 04:35:16;;;;;;;;;;;;;;;22.54;12.07;98355.91;4996525;28;1143;-78
2022/03/24 04:37:42;;;;;;;;;;;;;;;22.71;11.67;98351.03;4998030;28;995;-78
2022/03/24 04:40:07;;;;;;;;;;;;;;;21.96;12.41;98345.06;4997349;28;1140;-78
2022/03/24 04:42:33;;;;;;;;;;;;;;;21.63;12.92;98349.84;4978376;28;947;-78
2022/03/24 04:44:58;;;;;;;;;;;;;;;21.44;12.87;98339.34;4977935;28;962;-77
2022/03/24 04:47:24;;;;;;;;;;;;;;;22.34;11.96;98344.66;4978454;28;1902;-77
2022/03/24 04:49:49;;;;;;;;;;;;;;;22.59;11.89;98350.50;4977536;28;1054;-77
2022/03/24 04:52:15;;;;;;;;;;;;;;;22.11;12.38;98345.56;4978535;28;978;-77
2022/03/24 04:54:40;;;;;;;;;;;;;;;21.73;12.74;98348.81;4977629;28;1045;-78
2022/03/24 04:57:06;;;;;;;;;;;;;;;21.59;12.69;98341.44;4978537;28;1009;-78
2022/03/24 04:59:31;;;;;;;;;;;;;;;22.15;12.09;98342.66;4977906;28;986;-79
2022/03/24 05:01:57;;;;;;;;;;;;;;;22.54;12.30;98336.84;4920364;29;1598;-78
2022/03/24 05:04:23;;;;;;;;;;;;;;;22.38;12.02;98331.16;4888352;29;978;-78
2022/03/24 05:06:49;;;;;;;;;;;;;;;21.74;12.69;98330.59;4920624;29;1985;-78
2022/03/24 05:09:15;;;;;;;;;;;;;;;21.41;12.94;98328.91;4919804;29;1026;-78
2022/03/24 05:11:40;;;;;;;;;;;;;;;22.18;12.49;98325.59;4920801;29;952;-78
2022/03/24 05:14:06;;;;;;;;;;;;;;;22.63;11.96;98333.38;4948006;29;1061;-79
2022/03/24 05:16:31;;;;;;;;;;;;;;;22.65;12.08;98313.91;4958388;29;920;-78
2022/03/24 05:18:56;;;;;;;;;;;;;;;21.89;12.65;98316.13;4957884;29;905;-78
2022/03/24 05:21:22;;;;;;;;;;;;;;;21.60;12.49;98322.41;4958846;29;1089;-79
2022/03/24 05:23:48;;;;;;;;;;;;;;;22.08;12.36;98318.09;4957804;29;971;-78
2022/03/24 05:26:13;;;;;;;;;;;;;;;22.43;11.99;98318.50;4958292;29;981;-78
2022/03/24 05:28:39;;;;;;;;;;;;;;;22.66;11.96;98326.03;4957420;29;1910;-78
2022/03/24 05:31:05;;;;;;;;;;;;;;;21.96;12.42;98315.94;4958681;29;1064;-78
2022/03/24 05:33:31;;;;;;;;;;;;;;;21.65;12.56;98319.06;4957609;29;1048;-79
2022/03/24 05:35:57;;;;;;;;;;;;;;;21.54;12.40;98315.66;4958441;29;1007;-78
2022/03/24 05:38:22;;;;;;;;;;;;;;;21.97;12.31;98309.06;4960640;28;1003;-78
2022/03/24 05:40:47;;;;;;;;;;;;;;;22.31;12.26;98312.28;4998909;28;931;-78
2022/03/24 05:43:13;;;;;;;;;;;;;;;22.52;11.92;98301.66;4998163;28;963;-78
2022/03/24 05:45:38;;;;;;;;;;;;;;;21.78;12.28;98308.66;4998461;28;888;-78
2022/03/24 05:48:04;;;;;;;;;;;;;;;21.65;12.38;98302.06;4998493;28;1981;-79
2022/03/24 05:50:48;;;;;;;;;;;;;;;21.51;12.55;98299.56;4993283;28;1240;-78
2022/03/24 05:53:16;;;;;;;;;;;;;;;22.34;12.27;98305.75;4997185;28;1239;-77
2022/03/24 05:55:41;;;;;;;;;;;;;;;22.45;11.91;98304.69;4998283;28;988;-79
2022/03/24 05:58:07;;;;;;;;;;;;;;;22.71;12.06;98306.44;4997909;28;865;-78
2022/03/24 06:00:34;;;;;;;;;;;;;;;21.81;12.81;98301.31;4998148;28;936;-78
2022/03/24 06:03:00;;;;;;;;;;;;;;;21.69;12.45;98299.97;5015478;28;1029;-78
2022/03/24 06:05:26;;;;;;;;;;;;;;;21.94;12.38;98304.25;4975990;28;944;-77
2022/03/24 06:07:51;;;;;;;;;;;;;;;22.40;12.20;98302.38;4959796;28;1902;-78
2022/03/24 06:10:17;;;;;;;;;;;;;;;22.66;12.01;98304.13;4937416;29;1163;-77
2022/03/24 06:12:42;;;;;;;;;;;;;;;22.12;12.39;98310.31;4937651;29;1007;-79
2022/03/24 06:15:08;;;;;;;;;;;;;;;21.64;12.72;98294.81;4937659;29;1017;-79
2022/03/24 06:17:33;;;;;;;;;;;;;;;21.53;12.79;98303.53;4938006;29;1008;-78
2022/03/24 06:20:01;;;;;;;;;;;;;;;21.84;12.73;98300.44;4937786;29;1101;-78
2022/03/24 06:22:27;;;;;;;;;;;;;;;22.34;12.32;98305.75;4938335;29;1074;-79
2022/03/24 06:24:52;;;;;;;;;;;;;;;22.56;12.17;98305.22;4937382;29;1013;-78
2022/03/24 06:27:18;;;;;;;;;;;;;;;22.05;12.62;98288.59;4937991;29;1976;-78
2022/03/24 06:29:43;;;;;;;;;;;;;;;21.68;13.05;98295.53;4937684;29;962;-77
2022/03/24 06:32:09;;;;;;;;;;;;;;;21.46;13.19;98295.22;4938446;29;984;-76
2022/03/24 06:34:34;;;;;;;;;;;;;;;22.07;12.84;98293.81;4923676;29;949;-78
2022/03/24 06:37:01;;;;;;;;;;;;;;;22.43;12.40;98292.97;4936060;29;1061;-77
2022/03/24 06:39:26;;;;;;;;;;;;;;;22.57;12.49;98289.78;4956589;29;960;-77
2022/03/24 06:41:51;;;;;;;;;;;;;;;22.05;12.79;98293.47;4987756;28;992;-77
2022/03/24 06:44:17;;;;;;;;;;;;;;;21.59;13.17;98296.13;4997982;28;928;-78
2022/03/24 06:46:43;;;;;;;;;;;;;;;21.39;13.56;98289.69;4998194;28;1894;-77
2022/03/24 06:49:09;;;;;;;;;;;;;;;22.17;12.77;98289.97;5003520;28;1010;-78
2022/03/24 06:51:34;;;;;;;;;;;;;;;22.48;12.49;98283.94;5037670;28;892;-79
2022/03/24 06:54:00;;;;;;;;;;;;;;;22.60;12.60;98277.56;4995178;28;996;-78
2022/03/24 06:56:26;;;;;;;;;;;;;;;22.28;12.74;98275.56;4995381;28;951;-78
2022/03/24 06:58:51;;;;;;;;;;;;;;;21.66;13.48;98272.53;4998589;28;1160;-78
2022/03/24 07:01:17;;;;;;;;;;;;;;;21.45;13.78;98272.97;4999750;28;924;-79
2022/03/24 07:03:43;;;;;;;;;;;;;;;21.92;13.13;98279.22;4998931;28;979;-78
2022/03/24 07:06:08;;;;;;;;;;;;;;;22.43;12.79;98275.97;4999180;28;1012;-78
2022/03/24 07:08:35;;;;;;;;;;;;;;;22.55;13.04;98275.25;4950177;28;1986;-77
2022/03/24 07:11:01;;;;;;;;;;;;;;;22.47;12.90;98268.97;4999777;28;975;-79
2022/03/24 07:13:26;;;;;;;;;;;;;;;21.78;13.35;98274.66;4998690;28;914;-78
2022/03/24 07:15:52;;;;;;;;;;;;;;;21.57;13.56;98272.31;4999878;28;1040;-77
2022/03/24 07:18:17;;;;;;;;;;;;;;;21.65;13.94;98270.91;4998692;28;907;-79
2022/03/24 07:20:42;;;;;;;;;;;;;;;22.22;13.39;98275.25;5000051;28;1050;-77
2022/03/24 07:23:09;;;;;;;;;;;;;;;22.70;13.04;98270.00;4998641;28;933;-78
2022/03/24 07:25:36;;;;;;;;;;;;;;;22.38;13.18;98276.50;4999167;28;1099;-78
2022/03/24 07:28:02;;;;;;;;;;;;;;;21.73;13.93;98275.19;4940596;29;1911;-78
2022/03/24 07:30:27;;;;;;;;;;;;;;;21.60;14.01;98274.25;4945012;28;823;-77
2022/03/24 07:32:56;;;;;;;;;;;;;;;21.91;13.86;98276.81;4979810;28;999;-78
2022/03/24 07:35:21;;;;;;;;;;;;;;;22.45;13.43;98270.66;4979921;28;738;-79
2022/03/24 07:37:47;;;;;;;;;;;;;;;22.57;13.22;98267.09;4963465;28;1044;-78
2022/03/24 07:40:14;;;;;;;;;;;;;;;22.39;13.37;98270.41;4978909;28;1010;-78
2022/03/24 07:42:39;;;;;;;;;;;;;;;21.82;14.12;98272.56;4979165;28;940;-78
2022/03/24 07:45:05;;;;;;;;;;;;;;;21.53;14.04;98269.56;4962455;28;993;-78
2022/03/24 07:47:31;;;;;;;;;;;;;;;22.20;13.68;98271.28;4979415;28;1977;-78
2022/03/24 07:49:56;;;;;;;;;;;;;;;22.53;13.44;98274.88;4979108;28;1291;-79
2022/03/24 07:52:24;;;;;;;;;;;;;;;22.69;13.45;98263.53;4960121;29;1031;-78
2022/03/24 07:54:56;;;;;;;;;;;;;;;22.00;13.78;98268.50;4943552;29;1064;-78
2022/03/24 07:57:24;;;;;;;;;;;;;;;21.72;14.38;98270.78;4960336;29;1117;-78
2022/03/24 07:59:50;;;;;;;;;;;;;;;21.59;14.49;98267.00;4978902;28;1044;-78
2022/03/24 08:02:17;;;;;;;;;;;;;;;22.16;14.17;98273.41;5018577;28;1030;-78
2022/03/24 08:04:42;;;;;;;;;;;;;;;22.56;13.72;98274.81;5017875;28;1110;-77
2022/03/24 08:07:08;;;;;;;;;;;;;;;22.33;13.57;98263.69;5018555;28;1918;-77
2022/03/24 08:09:33;;;;;;;;;;;;;;;21.89;14.31;98267.97;5004505;28;1439;-78
2022/03/24 08:11:59;;;;;;;;;;;;;;;21.67;14.26;98262.78;4998454;28;974;-78
2022/03/24 08:14:25;;;;;;;;;;;;;;;21.93;14.38;98255.31;5003148;28;1414;-78
2022/03/24 08:16:50;;;;;;;;;;;;;;;22.41;13.82;98267.13;5008700;28;1218;-78
2022/03/24 08:19:16;;;;;;;;;;;;;;;22.63;13.48;98259.63;5005908;28;1551;-78
2022/03/24 08:21:42;;;;;;;;;;;;;;;22.02;13.94;98266.00;5007833;28;1256;-77
2022/03/24 08:24:08;;;;;;;;;;;;;;;21.69;14.61;98253.84;5007722;28;1333;-78
2022/03/24 08:26:34;;;;;;;;;;;;;;;21.62;14.71;98254.03;5006022;28;1969;-78
2022/03/24 08:28:59;;;;;;;;;;;;;;;21.58;14.55;98246.41;4998056;28;987;-77
2022/03/24 08:31:25;;;;;;;;;;;;;;;22.36;14.03;98251.44;5000424;28;955;-78
2022/03/24 08:33:50;;;;;;;;;;;;;;;22.58;13.90;98251.66;4981425;28;1049;-77
2022/03/24 08:36:16;;;;;;;;;;;;;;;22.14;14.38;98237.00;5000140;28;1004;-78
2022/03/24 08:38:41;;;;;;;;;;;;;;;21.69;14.67;98243.31;4999179;28;917;-78
2022/03/24 08:41:08;;;;;;;;;;;;;;;21.64;14.88;98235.34;5000457;28;995;-79
2022/03/24 08:43:33;;;;;;;;;;;;;;;21.72;14.52;98247.31;4998963;28;1021;-78
2022/03/24 08:45:59;;;;;;;;;;;;;;;22.23;14.39;98245.69;5000628;28;1007;-78
2022/03/24 08:48:25;;;;;;;;;;;;;;;22.54;14.02;98240.44;4999282;28;1914;-78
2022/03/24 08:50:50;;;;;;;;;;;;;;;22.00;14.44;98240.16;4939216;29;1299;-78
2022/03/24 08:53:16;;;;;;;;;;;;;;;21.62;14.90;98237.81;4939351;29;1006;-77
2022/03/24 08:55:41;;;;;;;;;;;;;;;21.61;14.87;98235.44;4939960;29;1138;-78
2022/03/24 08:58:08;;;;;;;;;;;;;;;21.61;14.81;98233.41;4939971;29;1128;-78
2022/03/24 09:00:34;;;;;;;;;;;;;;;22.26;14.45;98227.78;4939638;29;913;-79
2022/03/24 09:03:00;;;;;;;;;;;;;;;22.49;14.05;98234.50;4923625;29;1032;-78
2022/03/24 09:05:26;;;;;;;;;;;;;;;22.08;14.36;98224.59;4939701;29;962;-78
2022/03/24 09:07:51;;;;;;;;;;;;;;;21.69;14.72;98225.53;4939530;29;1984;-78
2022/03/24 09:10:16;;;;;;;;;;;;;;;21.37;14.99;98214.94;4939549;29;1038;-78
2022/03/24 09:12:45;;;;;;;;;;;;;;;21.71;14.87;98218.19;4939188;29;941;-78
2022/03/24 09:15:11;;;;;;;;;;;;;;;22.29;14.41;98224.06;4939114;29;1070;-78
2022/03/24 09:17:37;;;;;;;;;;;;;;;22.64;14.19;98221.53;4939404;29;1056;-78
2022/03/24 09:20:03;;;;;;;;;;;;;;;22.22;14.32;98224.25;4938631;29;1102;-79
2022/03/24 09:22:29;;;;;;;;;;;;;;;21.77;14.48;98216.44;4986324;28;1096;-78
2022/03/24 09:24:55;;;;;;;;;;;;;;;21.59;14.96;98221.72;4998479;28;999;-78
2022/03/24 09:27:21;;;;;;;;;;;;;;;21.59;14.74;98219.66;4999960;28;1919;-78
2022/03/24 09:29:49;;;;;;;;;;;;;;;22.21;14.37;98216.97;4998899;28;1026;-78
2022/03/24 09:32:15;;;;;;;;;;;;;;;22.48;14.33;98213.03;4950092;28;930;-78
2022/03/24 09:34:40;;;;;;;;;;;;;;;22.62;14.17;98207.00;5013340;28;1292;-79
2022/03/24 09:37:06;;;;;;;;;;;;;;;21.95;14.78;98206.69;4999711;28;1017;-78
2022/03/24 09:39:32;;;;;;;;;;;;;;;21.67;15.13;98211.81;4998353;28;1078;-78
2022/03/24 09:41:57;;;;;;;;;;;;;;;21.47;15.14;98205.41;4999082;28;906;-79
2022/03/24 09:44:23;;;;;;;;;;;;;;;22.19;14.89;98208.16;4998379;28;671;-78
2022/03/24 09:46:49;;;;;;;;;;;;;;;22.45;14.40;98202.63;4999057;28;1985;-77
2022/03/24 09:49:14;;;;;;;;;;;;;;;22.71;14.30;98210.00;4980837;28;1239;-78
2022/03/24 09:51:40;;;;;;;;;;;;;;;22.01;14.84;98204.91;4999010;28;928;-78
2022/03/24 09:54:06;;;;;;;;;;;;;;;21.79;14.96;98196.94;4998368;28;900;-78
2022/03/24 09:56:32;;;;;;;;;;;;;;;21.63;15.10;98194.09;4998755;28;925;-78
2022/03/24 09:58:57;;;;;;;;;;;;;;;22.17;14.77;98193.59;4997885;28;1022;-78
2022/03/24 10:01:23;;;;;;;;;;;;;;;22.53;14.11;98192.66;4938682;29;1139;-79
2022/03/24 10:04:07;;;;;;;;;;;;;;;22.54;14.13;98194.28;4937997;29;1040;-78
2022/03/24 10:06:33;;;;;;;;;;;;;;;21.89;15.01;98188.63;4922459;29;1178;-77
2022/03/24 10:08:59;;;;;;;;;;;;;;;21.61;15.07;98179.59;4918566;29;1993;-78
2022/03/24 10:11:25;;;;;;;;;;;;;;;21.65;14.94;98179.50;4918870;29;1093;-77
2022/03/24 10:13:54;;;;;;;;;;;;;;;22.20;14.52;98191.94;4919081;29;1032;-79
2022/03/24 10:16:41;;;;;;;;;;;;;;;22.57;14.21;98176.34;4935188;29;2169;-79
2022/03/24 10:19:10;;;;;;;;;;;;;;;21.99;14.54;98181.91;4937953;29;1065;-78
2022/03/24 10:21:40;;;;;;;;;;;;;;;21.75;15.10;98172.78;4938087;29;1046;-77
2022/03/24 10:24:11;;;;;;;;;;;;;;;21.60;15.21;98172.31;4937503;29;1085;-77
2022/03/24 10:26:41;;;;;;;;;;;;;;;21.85;15.15;98178.19;4937587;29;969;-77
2022/03/24 10:29:07;;;;;;;;;;;;;;;22.38;14.67;98169.56;4937168;29;1024;-77
2022/03/24 10:31:36;;;;;;;;;;;;;;;22.64;14.44;98170.50;4942612;28;1107;-79
2022/03/24 10:34:01;;;;;;;;;;;;;;;21.82;14.78;98167.75;4975387;28;1038;-76
2022/03/24 10:36:27;;;;;;;;;;;;;;;21.64;15.40;98167.38;4975421;28;983;-76
2022/03/24 10:38:53;;;;;;;;;;;;;;;21.59;15.38;98170.75;4976079;28;1340;-76
2022/03/24 10:41:20;;;;;;;;;;;;;;;22.32;14.44;98160.81;4994809;28;838;-75
2022/03/24 10:43:46;;;;;;;;;;;;;;;22.52;14.51;98162.72;4995239;28;990;-76
2022/03/24 10:46:15;;;;;;;;;;;;;;;22.09;14.73;98163.84;4994920;28;1090;-76
2022/03/24 10:48:40;;;;;;;;;;;;;;;21.66;15.22;98152.78;4994486;28;1981;-76
2022/03/24 10:51:06;;;;;;;;;;;;;;;21.61;15.22;98159.00;4994926;28;1250;-76
2022/03/24 10:53:41;;;;;;;;;;;;;;;22.09;15.05;98149.66;4994744;28;1040;-76
2022/03/24 10:56:13;;;;;;;;;;;;;;;22.42;14.52;98153.25;4975362;28;1209;-76
2022/03/24 10:58:46;;;;;;;;;;;;;;;22.35;14.56;98137.25;4975185;28;1254;-76
2022/03/24 11:01:17;;;;;;;;;;;;;;;21.77;15.03;98139.97;4975377;28;997;-76
2022/03/24 11:03:43;;;;;;;;;;;;;;;21.57;15.40;98134.38;4959241;28;980;-76
2022/03/24 11:06:09;;;;;;;;;;;;;;;22.08;14.87;98128.25;4974790;28;1063;-76
2022/03/24 11:08:35;;;;;;;;;;;;;;;22.40;14.72;98135.91;4936395;29;1930;-76
2022/03/24 11:11:04;;;;;;;;;;;;;;;22.57;14.29;98119.63;4936529;29;1026;-76
2022/03/24 11:13:40;;;;;;;;;;;;;;;21.77;15.23;98113.69;4936834;29;1026;-76
2022/03/24 11:16:05;;;;;;;;;;;;;;;21.49;15.20;98120.81;4898449;29;1086;-77
2022/03/24 11:18:31;;;;;;;;;;;;;;;21.43;15.29;98116.94;4898823;29;1029;-76
2022/03/24 11:21:00;;;;;;;;;;;;;;;22.02;15.09;98118.66;4898922;29;1208;-76
2022/03/24 11:23:29;;;;;;;;;;;;;;;22.50;14.70;98114.16;4898950;29;1022;-76
2022/03/24 11:25:57;;;;;;;;;;;;;;;22.60;14.60;98118.75;4899028;29;1330;-76
2022/03/24 11:28:23;;;;;;;;;;;;;;;22.70;14.31;98097.78;4898168;29;1914;-76
2022/03/24 11:30:49;;;;;;;;;;;;;;;22.11;14.84;98099.03;4898705;29;1075;-76
2022/03/24 11:33:16;;;;;;;;;;;;;;;21.83;15.24;98089.25;4867376;29;1076;-76
2022/03/24 11:35:42;;;;;;;;;;;;;;;21.59;15.54;98091.47;4879881;29;1023;-76
2022/03/24 11:38:07;;;;;;;;;;;;;;;21.52;15.51;98080.31;4864196;29;1586;-76
2022/03/24 11:40:33;;;;;;;;;;;;;;;22.16;14.93;98098.50;4913724;29;1086;-76
2022/03/24 11:43:17;;;;;;;;;;;;;;;22.53;14.59;98090.56;4918060;29;1208;-76
2022/03/24 11:45:49;;;;;;;;;;;;;;;21.91;15.17;98070.00;4920887;29;994;-76
2022/03/24 11:48:14;;;;;;;;;;;;;;;21.64;15.19;98082.44;4921012;29;1984;-76
2022/03/24 11:50:49;;;;;;;;;;;;;;;21.62;15.49;98076.44;4920890;29;1333;-76
2022/03/24 11:53:30;;;;;;;;;;;;;;;22.27;15.02;98076.31;4883226;29;936;-76
2022/03/24 11:55:58;;;;;;;;;;;;;;;22.52;14.61;98066.31;4883266;29;983;-75
2022/03/24 11:58:24;;;;;;;;;;;;;;;22.50;14.51;98068.81;4883284;29;994;-76
2022/03/24 12:00:50;;;;;;;;;;;;;;;21.67;15.47;98070.22;4883226;29;1134;-75
2022/03/24 12:03:34;;;;;;;;;;;;;;;21.54;15.61;98070.13;4883368;29;929;-76
2022/03/24 12:05:59;;;;;;;;;;;;;;;21.67;15.28;98063.78;4891356;29;1020;-76
2022/03/24 12:08:26;;;;;;;;;;;;;;;22.16;14.79;98055.97;4920505;29;1997;-76
2022/03/24 12:10:51;;;;;;;;;;;;;;;22.38;14.83;98055.38;4920628;29;894;-77
2022/03/24 12:13:21;;;;;;;;;;;;;;;22.53;14.80;98063.00;4920721;29;992;-76
2022/03/24 12:16:05;;;;;;;;;;;;;;;22.41;14.80;98055.28;4920637;29;1149;-76
2022/03/24 12:18:40;;;;;;;;;;;;;;;21.85;15.05;98047.88;4920657;29;1098;-77
2022/03/24 12:21:05;;;;;;;;;;;;;;;21.49;15.75;98058.53;4949980;28;1016;-76
2022/03/24 12:23:49;;;;;;;;;;;;;;;22.01;15.15;98063.25;4954380;28;956;-77
2022/03/24 12:26:15;;;;;;;;;;;;;;;22.35;14.73;98060.69;5001404;28;1589;-77
2022/03/24 12:28:43;;;;;;;;;;;;;;;22.44;14.73;98054.38;5001557;28;1981;-77
2022/03/24 12:31:08;;;;;;;;;;;;;;;22.70;14.51;98049.56;5018810;28;1040;-77
2022/03/24 12:33:35;;;;;;;;;;;;;;;21.94;15.29;98049.28;5019231;28;949;-77
2022/03/24 12:36:00;;;;;;;;;;;;;;;21.49;15.69;98048.00;5019101;28;976;-77
2022/03/24 12:38:30;;;;;;;;;;;;;;;21.26;15.86;98057.47;5019310;28;913;-77
2022/03/24 12:41:08;;;;;;;;;;;;;;;21.88;15.24;98045.41;5019026;28;904;-77
2022/03/24 12:43:53;;;;;;;;;;;;;;;22.39;14.70;98051.31;5019302;28;1129;-77
2022/03/24 12:46:18;;;;;;;;;;;;;;;22.50;14.70;98046.13;4958090;29;1054;-77
2022/03/24 12:48:44;;;;;;;;;;;;;;;21.76;15.58;98044.91;4958218;29;1926;-77
2022/03/24 12:51:16;;;;;;;;;;;;;;;21.50;15.55;98043.16;4958044;29;1391;-77
2022/03/24 12:53:51;;;;;;;;;;;;;;;21.46;15.50;98048.91;4958253;29;1009;-77
2022/03/24 12:56:26;;;;;;;;;;;;;;;22.12;14.91;98043.94;4957517;28;1030;-77